createdAt,value
2022-12-19T00:02:18.545Z,100560.13
2022-12-19T00:05:04.825Z,100574.94
2022-12-19T00:07:50.827Z,100546.47
2022-12-19T00:10:36.268Z,100564.78
2022-12-19T00:13:22.071Z,100517.31
2022-12-19T00:16:13.660Z,100560.78
2022-12-19T00:19:01.256Z,100556.03
2022-12-19T00:21:46.928Z,100545.03
2022-12-19T00:24:32.381Z,100514.97
2022-12-19T00:27:17.956Z,100577.16
2022-12-19T00:30:03.785Z,100393.81
2022-12-19T00:32:49.724Z,100327.13
2022-12-19T00:35:35.117Z,100604.84
2022-12-19T00:38:21.015Z,100612.22
2022-12-19T00:41:14.259Z,100581.66
2022-12-19T00:44:09.261Z,100351.53
2022-12-19T00:46:54.777Z,100461.78
2022-12-19T00:49:40.125Z,100338.03
2022-12-19T00:52:27.922Z,100526.59
2022-12-19T00:55:18.791Z,100578.13
2022-12-19T00:58:05.070Z,100567.72
2022-12-19T01:00:50.880Z,100569.09
2022-12-19T01:03:36.613Z,100556.88
2022-12-19T01:06:22.336Z,100575.91
2022-12-19T01:09:08.805Z,100503.19
2022-12-19T01:12:12.682Z,100551.88
2022-12-19T01:15:04.528Z,100559.31
2022-12-19T01:17:51.441Z,100549.19
2022-12-19T01:20:42.539Z,100457.50
2022-12-19T01:23:28.609Z,100325.94
2022-12-19T01:26:14.307Z,100498.59
2022-12-19T01:28:59.703Z,100486.22
2022-12-19T01:31:46.010Z,100534.97
2022-12-19T01:34:31.535Z,100325.94
2022-12-19T01:37:17.405Z,100530.38
2022-12-19T01:40:03.042Z,100531.22
2022-12-19T01:42:49.517Z,100528.84
2022-12-19T01:45:42.174Z,100327.47
2022-12-19T01:48:38.660Z,100477.34
2022-12-19T01:51:28.485Z,100527.66
2022-12-19T01:54:19.786Z,100509.47
2022-12-19T01:57:11.384Z,100514.13
2022-12-19T02:00:00.252Z,100514.13
2022-12-19T02:02:57.061Z,100525.13
2022-12-19T02:05:44.260Z,100559.59
2022-12-19T02:08:32.370Z,100491.66
2022-12-19T02:11:19.815Z,100297.91
2022-12-19T02:14:05.994Z,100524.06
2022-12-19T02:17:02.045Z,100509.16
2022-12-19T02:20:13.601Z,100543.03
2022-12-19T02:23:39.488Z,100505.81
2022-12-19T02:27:17.312Z,100512.41
2022-12-19T02:30:06.012Z,100509.78
2022-12-19T02:32:56.710Z,100497.44
2022-12-19T02:35:55.809Z,100481.88
2022-12-19T02:39:00.563Z,100490.47
2022-12-19T02:41:53.029Z,100490.56
2022-12-19T02:44:46.512Z,100492.91
2022-12-19T02:47:35.202Z,100501.53
2022-12-19T02:50:21.468Z,100433.66
2022-12-19T02:53:09.301Z,100445.19
2022-12-19T02:56:12.885Z,100498.72
2022-12-19T02:59:37.090Z,100502.66
2022-12-19T03:02:32.131Z,100531.44
2022-12-19T03:05:32.337Z,100512.50
2022-12-19T03:08:36.263Z,100496.78
2022-12-19T03:11:23.601Z,100493.13
2022-12-19T03:14:14.292Z,100424.44
2022-12-19T03:17:06.350Z,100513.59
2022-12-19T03:19:51.865Z,100415.53
2022-12-19T03:22:37.583Z,100468.34
2022-12-19T03:25:25.813Z,100474.84
2022-12-19T03:28:16.505Z,100315.72
2022-12-19T03:31:04.296Z,100509.59
2022-12-19T03:33:55.923Z,100475.41
2022-12-19T03:36:47.009Z,100299.78
2022-12-19T03:39:34.513Z,100319.75
2022-12-19T03:42:41.864Z,100518.41
2022-12-19T03:45:41.265Z,100488.31
2022-12-19T03:48:49.976Z,100472.81
2022-12-19T03:51:39.467Z,100519.13
2022-12-19T03:54:27.642Z,100520.28
2022-12-19T03:57:21.214Z,100349.25
2022-12-19T04:00:12.860Z,100518.84
2022-12-19T04:03:00.142Z,100517.78
2022-12-19T04:05:47.986Z,100520.47
2022-12-19T04:08:35.342Z,100337.94
2022-12-19T04:11:21.277Z,100521.34
2022-12-19T04:14:13.798Z,100302.09
2022-12-19T04:17:06.897Z,100512.94
2022-12-19T04:19:58.350Z,100464.19
2022-12-19T04:22:49.993Z,100524.47
2022-12-19T04:25:39.191Z,100296.78
2022-12-19T04:28:38.513Z,100515.47
2022-12-19T04:31:24.673Z,100525.31
2022-12-19T04:34:10.379Z,100530.75
2022-12-19T04:36:55.787Z,100487.97
2022-12-19T04:39:41.168Z,100353.22
2022-12-19T04:42:26.609Z,100314.59
2022-12-19T04:45:12.076Z,100336.81
2022-12-19T04:47:57.584Z,100341.44
2022-12-19T04:50:43.156Z,100522.59
2022-12-19T04:53:29.083Z,100263.53
2022-12-19T04:56:15.037Z,100495.13
2022-12-19T04:59:00.907Z,100507.66
2022-12-19T05:01:47.085Z,100476.72
2022-12-19T05:08:53.042Z,100500.38
2022-12-19T05:11:38.998Z,100459.94
2022-12-19T05:14:24.583Z,100513.84
2022-12-19T05:17:09.918Z,100420.94
2022-12-19T05:19:55.498Z,100510.06
2022-12-19T05:22:40.799Z,100326.22
2022-12-19T05:25:26.616Z,100505.13
2022-12-19T05:28:12.814Z,100510.53
2022-12-19T05:31:04.846Z,100498.25
2022-12-19T05:33:50.771Z,100498.28
2022-12-19T05:36:36.365Z,100492.63
2022-12-19T05:39:21.739Z,100488.47
2022-12-19T05:42:10.966Z,100512.97
2022-12-19T05:44:57.995Z,100481.53
2022-12-19T05:47:46.813Z,100276.09
2022-12-19T05:50:32.854Z,100524.59
2022-12-19T05:53:28.654Z,100529.56
2022-12-19T05:56:18.545Z,100528.59
2022-12-19T05:59:04.383Z,100474.91
2022-12-19T06:01:54.131Z,100442.78
2022-12-19T06:04:48.512Z,100528.84
2022-12-19T06:07:46.006Z,100488.91
2022-12-19T06:10:38.529Z,100408.53
2022-12-19T06:13:25.207Z,100536.28
2022-12-19T06:16:13.935Z,100538.59
2022-12-19T06:18:59.779Z,100534.38
2022-12-19T06:21:48.112Z,100356.66
2022-12-19T06:24:34.461Z,100392.59
2022-12-19T06:27:20.057Z,100559.03
2022-12-19T06:30:06.194Z,100524.19
2022-12-19T06:32:55.909Z,100557.03
2022-12-19T06:35:42.175Z,100501.22
2022-12-19T06:38:28.723Z,100389.63
2022-12-19T06:41:33.331Z,100461.28
2022-12-19T06:44:18.914Z,100357.41
2022-12-19T06:47:04.439Z,100511.94
2022-12-19T06:49:50.348Z,100546.41
2022-12-19T06:52:36.174Z,100337.66
2022-12-19T06:55:21.955Z,100505.16
2022-12-19T06:58:07.585Z,100377.75
2022-12-19T07:00:54.008Z,100559.41
2022-12-19T07:03:41.707Z,100560.13
2022-12-19T07:06:28.263Z,100345.88
2022-12-19T07:09:13.909Z,100569.94
2022-12-19T07:11:59.397Z,100502.78
2022-12-19T07:14:48.950Z,100565.84
2022-12-19T07:17:38.592Z,100602.75
2022-12-19T07:20:24.535Z,100562.53
2022-12-19T07:23:14.779Z,100504.28
2022-12-19T07:26:01.219Z,100492.97
2022-12-19T07:28:46.893Z,100559.72
2022-12-19T07:31:32.695Z,100559.88
2022-12-19T07:34:18.550Z,100344.84
2022-12-19T07:37:04.040Z,100446.31
2022-12-19T07:39:49.379Z,100490.53
2022-12-19T07:42:35.372Z,100557.03
2022-12-19T07:45:21.081Z,100491.47
2022-12-19T07:48:07.887Z,100536.59
2022-12-19T07:50:53.655Z,100547.00
2022-12-19T07:53:39.147Z,100351.31
2022-12-19T07:56:24.489Z,100311.81
2022-12-19T07:59:10.112Z,100541.13
2022-12-19T08:01:55.792Z,100398.16
2022-12-19T08:04:41.838Z,100524.56
2022-12-19T08:07:27.662Z,100537.22
2022-12-19T08:10:15.043Z,100530.13
2022-12-19T08:13:00.915Z,100532.38
2022-12-19T08:15:46.398Z,100538.31
2022-12-19T08:18:32.084Z,100483.72
2022-12-19T08:21:17.727Z,100357.06
2022-12-19T08:24:03.716Z,100475.38
2022-12-19T08:26:49.381Z,100516.75
2022-12-19T08:29:35.587Z,100516.69
2022-12-19T08:32:22.057Z,100511.91
2022-12-19T08:35:08.333Z,100502.75
2022-12-19T08:37:54.613Z,100453.19
2022-12-19T08:40:44.256Z,100501.34
2022-12-19T08:43:33.293Z,100497.38
2022-12-19T08:46:20.689Z,100494.59
2022-12-19T08:49:06.177Z,100500.53
2022-12-19T08:51:51.956Z,100379.13
2022-12-19T08:54:37.554Z,100495.03
2022-12-19T08:57:23.417Z,100352.38
2022-12-19T09:00:09.865Z,100435.44
2022-12-19T09:02:56.685Z,100438.50
2022-12-19T09:06:03.515Z,100486.13
2022-12-19T09:08:48.072Z,100252.16
2022-12-19T09:11:33.730Z,100387.69
2022-12-19T09:14:21.773Z,100463.66
2022-12-19T09:17:07.588Z,100401.66
2022-12-19T09:19:52.797Z,100473.19
2022-12-19T09:22:38.381Z,100444.06
2022-12-19T09:25:23.997Z,100306.34
2022-12-19T09:28:27.624Z,100484.34
2022-12-19T09:31:16.403Z,100288.09
2022-12-19T09:34:02.235Z,100463.78
2022-12-19T09:36:47.781Z,100252.25
2022-12-19T09:39:34.312Z,100417.97
2022-12-19T09:42:41.885Z,100447.97
2022-12-19T09:45:57.546Z,100447.47
2022-12-19T09:48:46.940Z,100424.16
2022-12-19T09:51:44.249Z,100444.66
2022-12-19T09:54:43.772Z,100463.88
2022-12-19T09:57:29.441Z,100436.72
2022-12-19T10:00:21.418Z,100448.34
2022-12-19T10:03:40.998Z,100240.34
2022-12-19T10:07:21.175Z,100331.75
2022-12-19T10:11:38.652Z,100404.38
2022-12-19T10:12:51.125Z,100410.81
2022-12-19T10:15:58.970Z,100397.19
2022-12-19T10:18:48.415Z,100390.94
2022-12-19T10:25:12.630Z,100396.09
2022-12-19T10:28:20.911Z,100252.09
2022-12-19T10:31:28.506Z,100345.31
2022-12-19T10:34:19.789Z,100337.72
2022-12-19T10:37:28.883Z,100158.34
2022-12-19T10:40:29.045Z,100363.59
2022-12-19T10:43:33.603Z,100399.00
2022-12-19T10:46:29.454Z,100393.56
2022-12-19T10:49:19.447Z,100354.09
2022-12-19T10:52:08.064Z,100299.13
2022-12-19T10:54:53.832Z,100309.94
2022-12-19T10:57:39.135Z,100312.97
2022-12-19T11:00:27.771Z,100258.13
2022-12-19T11:03:19.126Z,100341.75
2022-12-19T11:06:06.735Z,100334.47
2022-12-19T11:08:52.296Z,100350.88
2022-12-19T11:16:09.568Z,100169.75
2022-12-19T11:19:18.928Z,100137.41
2022-12-19T11:29:15.045Z,100333.50
2022-12-19T11:29:26.455Z,100344.13
2022-12-19T11:29:34.917Z,100132.09
2022-12-19T11:30:41.736Z,100346.59
2022-12-19T11:34:23.791Z,100309.16
2022-12-19T11:37:22.061Z,100332.53
2022-12-19T11:40:20.760Z,100194.69
2022-12-19T11:46:28.339Z,100329.00
2022-12-19T11:49:30.590Z,100319.47
2022-12-19T11:53:02.876Z,100318.59
2022-12-19T11:55:40.838Z,100332.38
2022-12-19T11:58:31.159Z,100278.84
2022-12-19T12:01:35.474Z,100303.94
2022-12-19T12:04:27.385Z,100250.22
2022-12-19T12:07:28.371Z,100062.47
2022-12-19T12:14:57.158Z,100336.66
2022-12-19T12:25:17.456Z,100242.41
2022-12-19T12:31:00.019Z,100310.59
2022-12-19T12:31:04.120Z,100301.47
2022-12-19T12:31:44.957Z,100296.25
2022-12-19T12:32:04.827Z,100258.28
2022-12-19T12:32:04.979Z,100318.84
2022-12-19T12:35:56.638Z,100278.47
2022-12-19T12:40:31.749Z,100093.97
2022-12-19T12:43:39.690Z,100307.56
2022-12-19T12:46:34.918Z,100316.00
2022-12-19T12:49:43.286Z,100303.66
2022-12-19T12:52:39.272Z,100276.94
2022-12-19T12:55:29.931Z,100332.31
2022-12-19T12:58:44.652Z,100284.97
2022-12-19T13:01:33.599Z,100271.09
2022-12-19T13:04:53.963Z,100281.94
2022-12-19T13:07:51.629Z,100242.31
2022-12-19T13:10:37.343Z,100067.66
2022-12-19T13:13:49.422Z,100278.00
2022-12-19T13:16:44.065Z,100284.97
2022-12-19T13:19:37.923Z,100268.91
2022-12-19T13:22:29.364Z,100269.56
2022-12-19T13:25:27.200Z,100244.81
2022-12-19T13:28:39.630Z,100265.00
2022-12-19T13:31:25.896Z,100265.75
2022-12-19T13:34:18.495Z,100261.97
2022-12-19T13:39:55.160Z,100254.34
2022-12-19T13:40:33.579Z,100246.75
2022-12-19T13:43:42.711Z,100236.78
2022-12-19T13:46:44.663Z,100246.97
2022-12-19T13:49:34.487Z,100232.13
2022-12-19T13:52:23.112Z,100220.50
2022-12-19T13:55:15.876Z,100229.06
2022-12-19T13:58:04.680Z,100187.09
2022-12-19T14:00:53.959Z,100040.63
2022-12-19T14:03:43.759Z,100160.47
2022-12-19T14:06:41.421Z,100206.94
2022-12-19T14:11:32.792Z,100223.97
2022-12-19T14:13:51.502Z,100217.56
2022-12-19T14:16:17.492Z,100226.22
2022-12-19T14:19:03.661Z,100232.84
2022-12-19T14:22:11.160Z,100233.72
2022-12-19T14:25:50.165Z,100135.78
2022-12-19T14:28:24.526Z,100148.13
2022-12-19T14:31:19.330Z,100241.63
2022-12-19T14:34:43.166Z,100239.34
2022-12-19T14:39:25.665Z,100224.66
2022-12-19T14:41:00.169Z,100072.56
2022-12-19T14:43:56.627Z,100225.28
2022-12-19T14:52:25.239Z,100072.72
2022-12-19T14:54:03.654Z,100249.63
2022-12-19T14:54:29.064Z,100262.19
2022-12-19T14:56:57.665Z,100238.69
2022-12-19T14:59:46.199Z,100182.91
2022-12-19T15:02:33.866Z,100210.06
2022-12-19T15:05:21.381Z,100180.72
2022-12-19T15:08:10.634Z,100205.06
2022-12-19T15:11:44.476Z,100198.88
2022-12-19T15:14:56.803Z,100207.59
2022-12-19T15:17:48.684Z,100169.19
2022-12-19T15:20:35.856Z,100239.59
2022-12-19T15:23:22.925Z,100211.75
2022-12-19T15:26:14.489Z,100212.88
2022-12-19T15:29:00.355Z,100130.38
2022-12-19T15:31:46.133Z,100027.00
2022-12-19T15:34:41.879Z,100179.06
2022-12-19T15:37:32.167Z,99992.91
2022-12-19T15:40:18.727Z,100189.72
2022-12-19T15:43:05.076Z,100180.75
2022-12-19T15:45:57.911Z,100177.72
2022-12-19T15:48:48.605Z,99935.25
2022-12-19T15:51:33.971Z,100160.31
2022-12-19T15:54:47.843Z,99947.31
2022-12-19T15:57:36.703Z,100163.75
2022-12-19T16:00:27.682Z,99936.72
2022-12-19T16:03:23.902Z,100182.94
2022-12-19T16:06:14.670Z,99985.50
2022-12-19T16:09:00.371Z,99953.69
2022-12-19T16:11:46.574Z,100114.75
2022-12-19T16:14:31.983Z,100102.50
2022-12-19T16:17:22.836Z,99941.47
2022-12-19T16:20:17.204Z,100122.44
2022-12-19T16:23:02.727Z,100136.59
2022-12-19T16:25:53.666Z,99940.44
2022-12-19T16:28:39.067Z,99924.59
2022-12-19T16:31:26.462Z,100196.66
2022-12-19T16:34:21.636Z,100147.59
2022-12-19T16:37:07.176Z,100111.63
2022-12-19T16:39:52.910Z,100128.53
2022-12-19T16:42:39.470Z,100102.00
2022-12-19T16:45:26.480Z,100145.75
2022-12-19T16:48:19.899Z,100148.63
2022-12-19T16:51:06.471Z,100146.44
2022-12-19T16:53:54.692Z,100094.84
2022-12-19T16:56:52.791Z,99960.06
2022-12-19T16:59:40.369Z,100131.41
2022-12-19T17:02:32.367Z,100154.72
2022-12-19T17:05:29.878Z,100159.78
2022-12-19T17:08:15.427Z,99888.56
2022-12-19T17:11:01.154Z,100100.16
2022-12-19T17:13:50.542Z,100092.47
2022-12-19T17:16:37.326Z,100088.66
2022-12-19T17:19:26.029Z,100005.38
2022-12-19T17:22:13.665Z,100020.13
2022-12-19T17:24:59.743Z,100066.88
2022-12-19T17:27:45.905Z,100078.53
2022-12-19T17:30:31.687Z,100108.56
2022-12-19T17:33:18.619Z,99867.66
2022-12-19T17:36:06.642Z,99862.16
2022-12-19T17:38:52.366Z,99990.41
2022-12-19T17:41:38.002Z,100048.81
2022-12-19T17:44:24.021Z,100026.34
2022-12-19T17:47:19.185Z,100074.81
2022-12-19T17:50:05.743Z,100069.50
2022-12-19T17:52:53.424Z,99846.91
2022-12-19T17:55:41.943Z,100069.16
2022-12-19T17:58:29.843Z,100053.94
2022-12-19T18:01:24.579Z,100067.88
2022-12-19T18:04:15.902Z,100059.63
2022-12-19T18:07:02.744Z,100074.81
2022-12-19T18:09:48.577Z,100078.69
2022-12-19T18:12:34.592Z,100000.34
2022-12-19T18:15:22.297Z,100091.19
2022-12-19T18:18:13.869Z,99986.69
2022-12-19T18:21:02.421Z,100036.97
2022-12-19T18:23:48.855Z,100046.69
2022-12-19T18:26:34.649Z,100034.25
2022-12-19T18:29:19.827Z,100031.72
2022-12-19T18:32:05.526Z,99837.19
2022-12-19T18:34:52.517Z,100015.16
2022-12-19T18:37:42.314Z,99968.75
2022-12-19T18:40:31.548Z,99983.78
2022-12-19T18:43:19.240Z,99958.16
2022-12-19T18:46:05.531Z,99968.94
2022-12-19T18:48:51.713Z,100014.00
2022-12-19T18:51:38.098Z,100029.66
2022-12-19T18:54:23.890Z,99972.00
2022-12-19T18:57:09.636Z,100010.47
2022-12-19T18:59:55.479Z,100002.69
2022-12-19T19:02:47.257Z,99970.19
2022-12-19T19:05:36.117Z,99936.06
2022-12-19T19:08:30.589Z,99977.09
2022-12-19T19:11:35.151Z,99946.75
2022-12-19T19:14:20.612Z,99986.50
2022-12-19T19:17:07.026Z,99896.75
2022-12-19T19:19:52.608Z,99951.38
2022-12-19T19:22:38.303Z,99883.56
2022-12-19T19:25:24.793Z,99924.34
2022-12-19T19:28:10.766Z,99726.56
2022-12-19T19:30:57.987Z,99948.63
2022-12-19T19:33:50.965Z,99951.69
2022-12-19T19:36:41.074Z,99864.34
2022-12-19T19:39:32.910Z,99954.44
2022-12-19T19:42:19.101Z,99965.44
2022-12-19T19:45:06.107Z,99937.84
2022-12-19T19:47:51.999Z,99888.63
2022-12-19T19:50:38.119Z,99929.22
2022-12-19T19:53:23.679Z,99878.00
2022-12-19T19:56:09.602Z,99897.75
2022-12-19T19:58:55.429Z,99929.06
2022-12-19T20:01:41.288Z,99729.66
2022-12-19T20:04:28.198Z,99888.47
2022-12-19T20:07:14.492Z,99931.28
2022-12-19T20:10:00.564Z,99739.59
2022-12-19T20:12:46.827Z,99863.00
2022-12-19T20:15:33.378Z,99853.69
2022-12-19T20:18:19.004Z,99858.63
2022-12-19T20:21:12.286Z,99856.16
2022-12-19T20:23:58.972Z,99730.91
2022-12-19T20:26:44.577Z,99723.59
2022-12-19T20:29:30.549Z,99908.00
2022-12-19T20:32:16.332Z,99864.19
2022-12-19T20:35:02.031Z,99882.03
2022-12-19T20:37:47.613Z,99869.97
2022-12-19T20:40:33.383Z,99755.28
2022-12-19T20:43:21.400Z,99883.41
2022-12-19T20:46:15.013Z,99889.97
2022-12-19T20:49:02.429Z,99880.00
2022-12-19T20:51:49.799Z,99878.69
2022-12-19T20:54:36.733Z,99855.06
2022-12-19T20:57:27.955Z,99636.09
2022-12-19T21:00:15.223Z,99862.16
2022-12-19T21:03:27.200Z,99904.69
2022-12-19T21:06:08.329Z,99633.16
2022-12-19T21:08:56.169Z,99850.53
2022-12-19T21:11:41.909Z,99653.78
2022-12-19T21:14:27.457Z,99791.91
2022-12-19T21:17:13.173Z,99846.47
2022-12-19T21:19:58.794Z,99618.75
2022-12-19T21:22:44.627Z,99687.00
2022-12-19T21:25:46.425Z,99727.94
2022-12-19T21:28:33.330Z,99637.63
2022-12-19T21:31:27.594Z,99795.56
2022-12-19T21:34:13.281Z,99781.38
2022-12-19T21:36:59.537Z,99811.13
2022-12-19T21:39:44.919Z,99727.63
2022-12-19T21:42:30.406Z,99691.72
2022-12-19T21:45:16.375Z,99774.16
2022-12-19T21:48:01.931Z,99742.31
2022-12-19T21:50:55.611Z,99804.16
2022-12-19T21:53:41.311Z,99776.69
2022-12-19T21:56:34.243Z,99684.25
2022-12-19T21:59:19.509Z,99794.88
2022-12-19T22:02:05.131Z,99796.47
2022-12-19T22:04:51.178Z,99808.78
2022-12-19T22:07:36.477Z,99600.09
2022-12-19T22:10:22.574Z,99745.00
2022-12-19T22:13:07.895Z,99691.06
2022-12-19T22:15:53.498Z,99785.63
2022-12-19T22:18:40.908Z,99545.22
2022-12-19T22:21:27.071Z,99777.00
2022-12-19T22:24:14.269Z,99764.59
2022-12-19T22:27:00.192Z,99753.72
2022-12-19T22:29:45.636Z,99742.34
2022-12-19T22:32:31.567Z,99759.78
2022-12-19T22:35:17.227Z,99681.59
2022-12-19T22:38:02.714Z,99661.72
2022-12-19T22:40:48.263Z,99745.09
2022-12-19T22:43:35.671Z,99734.88
2022-12-19T22:46:26.376Z,99737.50
2022-12-19T22:49:14.191Z,99501.84
2022-12-19T22:52:00.264Z,99698.50
2022-12-19T22:54:45.737Z,99733.56
2022-12-19T22:57:31.249Z,99674.41
2022-12-19T23:00:17.370Z,99673.19
2022-12-19T23:03:02.962Z,99476.09
2022-12-19T23:05:52.115Z,99668.31
2022-12-19T23:08:38.680Z,99727.34
2022-12-19T23:11:29.487Z,99710.63
2022-12-19T23:14:17.075Z,99709.78
2022-12-19T23:17:02.639Z,99680.75
2022-12-19T23:19:47.929Z,99456.84
2022-12-19T23:22:33.323Z,99670.91
2022-12-19T23:25:19.120Z,99524.16
2022-12-19T23:28:05.192Z,99571.00
2022-12-19T23:30:50.876Z,99626.75
2022-12-19T23:33:36.519Z,99554.88
2022-12-19T23:36:45.066Z,99650.09
2022-12-19T23:39:27.567Z,99603.34
2022-12-19T23:42:13.057Z,99453.81
2022-12-19T23:44:58.496Z,99467.75
2022-12-19T23:47:46.675Z,99697.03
2022-12-19T23:50:32.211Z,99604.28
2022-12-19T23:53:17.757Z,99667.50
2022-12-19T23:56:08.171Z,99486.44
2022-12-19T23:58:54.783Z,99473.41
